sensor_id;sensor_type;location;lat;lon;timestamp;temperature;humidity
38263;DHT22;24054;50.128;19.730;2022-12-18T00:02:17;21.10;46.80
38263;DHT22;24054;50.128;19.730;2022-12-18T00:04:44;21.10;46.80
38263;DHT22;24054;50.128;19.730;2022-12-18T00:07:11;21.00;46.70
38263;DHT22;24054;50.128;19.730;2022-12-18T00:09:39;21.00;46.70
38263;DHT22;24054;50.128;19.730;2022-12-18T00:12:06;21.00;46.70
38263;DHT22;24054;50.128;19.730;2022-12-18T00:14:35;21.00;46.70
38263;DHT22;24054;50.128;19.730;2022-12-18T00:17:02;21.00;46.70
38263;DHT22;24054;50.128;19.730;2022-12-18T00:19:29;21.00;46.60
38263;DHT22;24054;50.128;19.730;2022-12-18T00:21:56;21.00;46.60
38263;DHT22;24054;50.128;19.730;2022-12-18T00:24:23;21.00;46.60
38263;DHT22;24054;50.128;19.730;2022-12-18T00:26:51;21.00;46.60
38263;DHT22;24054;50.128;19.730;2022-12-18T00:29:18;20.90;46.60
38263;DHT22;24054;50.128;19.730;2022-12-18T00:31:47;21.00;46.50
38263;DHT22;24054;50.128;19.730;2022-12-18T00:34:14;20.90;46.50
38263;DHT22;24054;50.128;19.730;2022-12-18T00:36:42;20.90;46.50
38263;DHT22;24054;50.128;19.730;2022-12-18T00:39:10;21.00;46.60
38263;DHT22;24054;50.128;19.730;2022-12-18T00:41:37;20.90;46.50
38263;DHT22;24054;50.128;19.730;2022-12-18T00:44:22;20.90;46.50
38263;DHT22;24054;50.128;19.730;2022-12-18T00:46:50;20.90;46.50
38263;DHT22;24054;50.128;19.730;2022-12-18T00:49:19;20.80;46.40
38263;DHT22;24054;50.128;19.730;2022-12-18T00:51:46;20.80;46.40
38263;DHT22;24054;50.128;19.730;2022-12-18T00:54:14;20.80;46.40
38263;DHT22;24054;50.128;19.730;2022-12-18T00:56:41;20.80;46.40
38263;DHT22;24054;50.128;19.730;2022-12-18T00:59:08;20.80;46.30
38263;DHT22;24054;50.128;19.730;2022-12-18T01:01:35;20.80;46.30
38263;DHT22;24054;50.128;19.730;2022-12-18T01:04:04;20.80;46.30
38263;DHT22;24054;50.128;19.730;2022-12-18T01:06:31;20.80;46.30
38263;DHT22;24054;50.128;19.730;2022-12-18T01:08:58;20.80;46.30
38263;DHT22;24054;50.128;19.730;2022-12-18T01:11:25;20.70;46.20
38263;DHT22;24054;50.128;19.730;2022-12-18T01:13:53;20.70;46.20
38263;DHT22;24054;50.128;19.730;2022-12-18T01:16:20;20.80;46.20
38263;DHT22;24054;50.128;19.730;2022-12-18T01:18:50;20.70;46.10
38263;DHT22;24054;50.128;19.730;2022-12-18T01:21:18;20.70;46.10
38263;DHT22;24054;50.128;19.730;2022-12-18T01:23:46;20.70;46.10
38263;DHT22;24054;50.128;19.730;2022-12-18T01:26:15;20.70;46.10
38263;DHT22;24054;50.128;19.730;2022-12-18T01:28:42;20.70;46.10
38263;DHT22;24054;50.128;19.730;2022-12-18T01:31:12;20.70;46.10
38263;DHT22;24054;50.128;19.730;2022-12-18T01:33:39;20.70;46.00
38263;DHT22;24054;50.128;19.730;2022-12-18T01:36:06;20.70;46.00
38263;DHT22;24054;50.128;19.730;2022-12-18T01:38:35;20.70;46.00
38263;DHT22;24054;50.128;19.730;2022-12-18T01:41:02;20.70;46.00
38263;DHT22;24054;50.128;19.730;2022-12-18T01:43:48;20.60;45.90
38263;DHT22;24054;50.128;19.730;2022-12-18T01:46:16;20.60;45.90
38263;DHT22;24054;50.128;19.730;2022-12-18T01:48:45;20.60;45.90
38263;DHT22;24054;50.128;19.730;2022-12-18T01:51:13;20.60;45.90
38263;DHT22;24054;50.128;19.730;2022-12-18T01:53:44;20.60;45.80
38263;DHT22;24054;50.128;19.730;2022-12-18T01:56:13;20.60;45.80
38263;DHT22;24054;50.128;19.730;2022-12-18T01:58:48;20.60;45.70
38263;DHT22;24054;50.128;19.730;2022-12-18T02:01:17;20.60;45.80
38263;DHT22;24054;50.128;19.730;2022-12-18T02:03:44;20.50;45.70
38263;DHT22;24054;50.128;19.730;2022-12-18T02:06:15;20.50;45.70
38263;DHT22;24054;50.128;19.730;2022-12-18T02:08:51;20.50;46.30
38263;DHT22;24054;50.128;19.730;2022-12-18T02:11:26;20.50;45.60
38263;DHT22;24054;50.128;19.730;2022-12-18T02:14:03;20.50;45.70
38263;DHT22;24054;50.128;19.730;2022-12-18T02:16:36;20.50;45.60
38263;DHT22;24054;50.128;19.730;2022-12-18T02:19:15;20.50;45.60
38263;DHT22;24054;50.128;19.730;2022-12-18T02:21:54;20.50;45.60
38263;DHT22;24054;50.128;19.730;2022-12-18T02:24:31;20.50;45.60
38263;DHT22;24054;50.128;19.730;2022-12-18T02:27:03;20.50;45.60
38263;DHT22;24054;50.128;19.730;2022-12-18T02:29:36;20.50;45.60
38263;DHT22;24054;50.128;19.730;2022-12-18T02:32:08;20.40;45.50
38263;DHT22;24054;50.128;19.730;2022-12-18T02:34:38;20.40;45.50
38263;DHT22;24054;50.128;19.730;2022-12-18T02:37:09;20.40;45.50
38263;DHT22;24054;50.128;19.730;2022-12-18T02:39:39;20.40;45.40
38263;DHT22;24054;50.128;19.730;2022-12-18T02:42:08;20.40;45.50
38263;DHT22;24054;50.128;19.730;2022-12-18T02:44:43;20.40;45.40
38263;DHT22;24054;50.128;19.730;2022-12-18T02:47:10;20.40;45.40
38263;DHT22;24054;50.128;19.730;2022-12-18T02:49:47;20.40;45.40
38263;DHT22;24054;50.128;19.730;2022-12-18T02:52:24;20.40;45.40
38263;DHT22;24054;50.128;19.730;2022-12-18T02:55:08;20.40;45.40
38263;DHT22;24054;50.128;19.730;2022-12-18T02:57:44;20.30;45.40
38263;DHT22;24054;50.128;19.730;2022-12-18T03:00:15;20.30;45.30
38263;DHT22;24054;50.128;19.730;2022-12-18T03:02:46;20.30;45.40
38263;DHT22;24054;50.128;19.730;2022-12-18T03:05:19;20.30;45.40
38263;DHT22;24054;50.128;19.730;2022-12-18T03:07:51;20.30;45.40
38263;DHT22;24054;50.128;19.730;2022-12-18T03:10:24;20.30;45.40
38263;DHT22;24054;50.128;19.730;2022-12-18T03:12:57;20.30;45.30
38263;DHT22;24054;50.128;19.730;2022-12-18T03:15:29;20.30;45.90
38263;DHT22;24054;50.128;19.730;2022-12-18T03:18:12;20.30;45.60
38263;DHT22;24054;50.128;19.730;2022-12-18T03:20:42;20.30;45.30
38263;DHT22;24054;50.128;19.730;2022-12-18T03:23:13;20.30;45.30
38263;DHT22;24054;50.128;19.730;2022-12-18T03:25:43;20.30;45.30
38263;DHT22;24054;50.128;19.730;2022-12-18T03:28:14;20.30;45.30
38263;DHT22;24054;50.128;19.730;2022-12-18T03:30:44;20.30;45.30
38263;DHT22;24054;50.128;19.730;2022-12-18T03:33:16;20.20;45.30
38263;DHT22;24054;50.128;19.730;2022-12-18T03:35:45;20.20;45.30
38263;DHT22;24054;50.128;19.730;2022-12-18T03:38:13;20.20;45.20
38263;DHT22;24054;50.128;19.730;2022-12-18T03:40:49;20.20;45.30
38263;DHT22;24054;50.128;19.730;2022-12-18T03:43:28;20.20;45.20
38263;DHT22;24054;50.128;19.730;2022-12-18T03:46:02;20.20;45.30
38263;DHT22;24054;50.128;19.730;2022-12-18T03:48:37;20.20;45.30
38263;DHT22;24054;50.128;19.730;2022-12-18T03:51:07;20.20;45.20
38263;DHT22;24054;50.128;19.730;2022-12-18T03:53:39;20.20;45.30
38263;DHT22;24054;50.128;19.730;2022-12-18T03:56:10;20.20;44.70
38263;DHT22;24054;50.128;19.730;2022-12-18T03:58:40;20.20;45.30
38263;DHT22;24054;50.128;19.730;2022-12-18T04:01:09;20.20;45.20
38263;DHT22;24054;50.128;19.730;2022-12-18T04:03:38;20.10;45.20
38263;DHT22;24054;50.128;19.730;2022-12-18T04:06:06;20.10;45.20
38263;DHT22;24054;50.128;19.730;2022-12-18T04:08:34;20.10;45.20
38263;DHT22;24054;50.128;19.730;2022-12-18T04:11:02;20.10;45.20
38263;DHT22;24054;50.128;19.730;2022-12-18T04:13:31;20.10;45.20
38263;DHT22;24054;50.128;19.730;2022-12-18T04:16:00;20.10;45.20
38263;DHT22;24054;50.128;19.730;2022-12-18T04:18:27;20.10;45.10
38263;DHT22;24054;50.128;19.730;2022-12-18T04:20:54;20.10;45.20
38263;DHT22;24054;50.128;19.730;2022-12-18T04:23:21;20.00;45.10
38263;DHT22;24054;50.128;19.730;2022-12-18T04:25:48;20.10;45.20
38263;DHT22;24054;50.128;19.730;2022-12-18T04:28:15;20.10;45.10
38263;DHT22;24054;50.128;19.730;2022-12-18T04:30:42;20.10;45.20
38263;DHT22;24054;50.128;19.730;2022-12-18T04:33:12;20.00;45.10
38263;DHT22;24054;50.128;19.730;2022-12-18T04:35:40;20.10;45.10
38263;DHT22;24054;50.128;19.730;2022-12-18T04:38:08;20.00;45.00
38263;DHT22;24054;50.128;19.730;2022-12-18T04:40:36;20.00;45.10
38263;DHT22;24054;50.128;19.730;2022-12-18T04:43:04;20.00;45.10
38263;DHT22;24054;50.128;19.730;2022-12-18T04:45:31;20.00;45.10
38263;DHT22;24054;50.128;19.730;2022-12-18T04:47:58;20.00;45.10
38263;DHT22;24054;50.128;19.730;2022-12-18T04:50:27;20.00;45.10
38263;DHT22;24054;50.128;19.730;2022-12-18T04:52:54;20.00;45.10
38263;DHT22;24054;50.128;19.730;2022-12-18T04:55:21;20.00;45.10
38263;DHT22;24054;50.128;19.730;2022-12-18T04:57:48;20.00;45.10
38263;DHT22;24054;50.128;19.730;2022-12-18T05:00:16;20.00;45.10
38263;DHT22;24054;50.128;19.730;2022-12-18T05:02:43;20.00;45.10
38263;DHT22;24054;50.128;19.730;2022-12-18T05:05:10;19.90;45.00
38263;DHT22;24054;50.128;19.730;2022-12-18T05:07:38;19.90;45.00
38263;DHT22;24054;50.128;19.730;2022-12-18T05:10:06;19.90;45.00
38263;DHT22;24054;50.128;19.730;2022-12-18T05:12:33;19.90;45.00
38263;DHT22;24054;50.128;19.730;2022-12-18T05:15:20;19.90;45.00
38263;DHT22;24054;50.128;19.730;2022-12-18T05:17:47;19.90;45.00
38263;DHT22;24054;50.128;19.730;2022-12-18T05:20:14;19.90;45.00
38263;DHT22;24054;50.128;19.730;2022-12-18T05:22:43;19.90;45.00
38263;DHT22;24054;50.128;19.730;2022-12-18T05:25:09;19.90;45.00
38263;DHT22;24054;50.128;19.730;2022-12-18T05:27:36;19.90;45.00
38263;DHT22;24054;50.128;19.730;2022-12-18T05:30:04;19.90;45.00
38263;DHT22;24054;50.128;19.730;2022-12-18T05:32:31;19.90;45.00
38263;DHT22;24054;50.128;19.730;2022-12-18T05:34:58;19.80;44.90
38263;DHT22;24054;50.128;19.730;2022-12-18T05:37:25;19.80;44.90
38263;DHT22;24054;50.128;19.730;2022-12-18T05:39:53;19.80;44.90
38263;DHT22;24054;50.128;19.730;2022-12-18T05:42:20;19.90;45.00
38263;DHT22;24054;50.128;19.730;2022-12-18T05:44:47;19.80;44.90
38263;DHT22;24054;50.128;19.730;2022-12-18T05:47:14;19.80;44.90
38263;DHT22;24054;50.128;19.730;2022-12-18T05:49:41;19.80;44.90
38263;DHT22;24054;50.128;19.730;2022-12-18T05:52:08;19.80;44.90
38263;DHT22;24054;50.128;19.730;2022-12-18T05:54:35;19.80;44.90
38263;DHT22;24054;50.128;19.730;2022-12-18T05:57:04;19.80;44.90
38263;DHT22;24054;50.128;19.730;2022-12-18T05:59:31;19.80;44.90
38263;DHT22;24054;50.128;19.730;2022-12-18T06:01:58;19.80;44.90
38263;DHT22;24054;50.128;19.730;2022-12-18T06:04:26;19.80;44.90
38263;DHT22;24054;50.128;19.730;2022-12-18T06:06:58;19.80;44.90
38263;DHT22;24054;50.128;19.730;2022-12-18T06:09:25;19.80;44.90
38263;DHT22;24054;50.128;19.730;2022-12-18T06:11:52;19.80;44.90
38263;DHT22;24054;50.128;19.730;2022-12-18T06:14:21;19.80;45.00
38263;DHT22;24054;50.128;19.730;2022-12-18T06:16:50;19.80;45.20
38263;DHT22;24054;50.128;19.730;2022-12-18T06:19:17;19.80;45.30
38263;DHT22;24054;50.128;19.730;2022-12-18T06:21:45;19.70;45.30
38263;DHT22;24054;50.128;19.730;2022-12-18T06:24:12;19.80;45.50
38263;DHT22;24054;50.128;19.730;2022-12-18T06:26:39;19.90;45.60
38263;DHT22;24054;50.128;19.730;2022-12-18T06:29:06;19.90;45.70
38263;DHT22;24054;50.128;19.730;2022-12-18T06:31:35;19.90;45.70
38263;DHT22;24054;50.128;19.730;2022-12-18T06:34:03;19.90;45.70
38263;DHT22;24054;50.128;19.730;2022-12-18T06:36:30;20.00;45.90
38263;DHT22;24054;50.128;19.730;2022-12-18T06:38:57;20.00;45.90
38263;DHT22;24054;50.128;19.730;2022-12-18T06:41:24;20.10;46.10
38263;DHT22;24054;50.128;19.730;2022-12-18T06:43:52;20.10;46.10
38263;DHT22;24054;50.128;19.730;2022-12-18T06:46:19;20.20;46.20
38263;DHT22;24054;50.128;19.730;2022-12-18T06:48:50;20.30;46.30
38263;DHT22;24054;50.128;19.730;2022-12-18T06:51:18;20.30;46.40
38263;DHT22;24054;50.128;19.730;2022-12-18T06:53:46;20.40;46.50
38263;DHT22;24054;50.128;19.730;2022-12-18T06:56:13;20.40;46.50
38263;DHT22;24054;50.128;19.730;2022-12-18T06:58:41;20.40;46.50
38263;DHT22;24054;50.128;19.730;2022-12-18T07:01:11;20.50;46.60
38263;DHT22;24054;50.128;19.730;2022-12-18T07:03:38;20.60;46.70
38263;DHT22;24054;50.128;19.730;2022-12-18T07:06:13;20.60;46.70
38263;DHT22;24054;50.128;19.730;2022-12-18T07:08:40;20.70;46.80
38263;DHT22;24054;50.128;19.730;2022-12-18T07:11:07;20.70;46.70
38263;DHT22;24054;50.128;19.730;2022-12-18T07:13:34;20.70;46.80
38263;DHT22;24054;50.128;19.730;2022-12-18T07:16:06;20.80;46.80
38263;DHT22;24054;50.128;19.730;2022-12-18T07:18:33;20.80;46.80
38263;DHT22;24054;50.128;19.730;2022-12-18T07:21:04;20.80;46.80
38263;DHT22;24054;50.128;19.730;2022-12-18T07:23:34;20.90;46.80
38263;DHT22;24054;50.128;19.730;2022-12-18T07:26:02;20.90;46.80
38263;DHT22;24054;50.128;19.730;2022-12-18T07:28:30;21.00;46.90
38263;DHT22;24054;50.128;19.730;2022-12-18T07:30:57;21.00;46.90
38263;DHT22;24054;50.128;19.730;2022-12-18T07:33:24;21.10;46.90
38263;DHT22;24054;50.128;19.730;2022-12-18T07:35:51;21.10;46.90
38263;DHT22;24054;50.128;19.730;2022-12-18T07:38:18;21.10;46.80
38263;DHT22;24054;50.128;19.730;2022-12-18T07:40:47;21.10;46.80
38263;DHT22;24054;50.128;19.730;2022-12-18T07:43:14;21.20;46.80
38263;DHT22;24054;50.128;19.730;2022-12-18T07:45:42;21.20;46.80
38263;DHT22;24054;50.128;19.730;2022-12-18T07:48:09;21.20;46.80
38263;DHT22;24054;50.128;19.730;2022-12-18T07:50:36;21.20;46.80
38263;DHT22;24054;50.128;19.730;2022-12-18T07:53:03;21.30;46.80
38263;DHT22;24054;50.128;19.730;2022-12-18T07:55:31;21.30;46.80
38263;DHT22;24054;50.128;19.730;2022-12-18T07:58:02;21.30;46.80
38263;DHT22;24054;50.128;19.730;2022-12-18T08:00:29;21.40;46.80
38263;DHT22;24054;50.128;19.730;2022-12-18T08:02:58;21.30;46.80
38263;DHT22;24054;50.128;19.730;2022-12-18T08:05:25;21.40;46.90
38263;DHT22;24054;50.128;19.730;2022-12-18T08:07:53;21.40;46.90
38263;DHT22;24054;50.128;19.730;2022-12-18T08:10:21;21.40;46.90
38263;DHT22;24054;50.128;19.730;2022-12-18T08:12:49;21.40;46.90
38263;DHT22;24054;50.128;19.730;2022-12-18T08:15:18;21.50;46.90
38263;DHT22;24054;50.128;19.730;2022-12-18T08:17:45;21.50;47.60
38263;DHT22;24054;50.128;19.730;2022-12-18T08:20:12;21.50;47.00
38263;DHT22;24054;50.128;19.730;2022-12-18T08:22:41;21.50;46.90
38263;DHT22;24054;50.128;19.730;2022-12-18T08:25:09;21.50;46.90
38263;DHT22;24054;50.128;19.730;2022-12-18T08:27:36;21.50;46.80
38263;DHT22;24054;50.128;19.730;2022-12-18T08:30:04;21.60;46.90
38263;DHT22;24054;50.128;19.730;2022-12-18T08:32:33;21.60;46.90
38263;DHT22;24054;50.128;19.730;2022-12-18T08:35:00;21.60;46.90
38263;DHT22;24054;50.128;19.730;2022-12-18T08:37:27;21.60;46.90
38263;DHT22;24054;50.128;19.730;2022-12-18T08:39:54;21.60;47.50
38263;DHT22;24054;50.128;19.730;2022-12-18T08:42:21;21.70;47.00
38263;DHT22;24054;50.128;19.730;2022-12-18T08:45:07;21.70;47.10
38263;DHT22;24054;50.128;19.730;2022-12-18T08:47:35;21.70;47.10
38263;DHT22;24054;50.128;19.730;2022-12-18T08:50:03;21.70;47.20
38263;DHT22;24054;50.128;19.730;2022-12-18T08:52:31;21.80;47.30
38263;DHT22;24054;50.128;19.730;2022-12-18T08:54:59;21.80;47.30
38263;DHT22;24054;50.128;19.730;2022-12-18T08:57:26;21.80;47.60
38263;DHT22;24054;50.128;19.730;2022-12-18T08:59:53;21.80;47.90
38263;DHT22;24054;50.128;19.730;2022-12-18T09:02:21;21.90;48.50
38263;DHT22;24054;50.128;19.730;2022-12-18T09:04:49;21.90;48.70
38263;DHT22;24054;50.128;19.730;2022-12-18T09:07:16;21.90;48.50
38263;DHT22;24054;50.128;19.730;2022-12-18T09:09:44;21.90;48.50
38263;DHT22;24054;50.128;19.730;2022-12-18T09:12:11;21.90;48.50
38263;DHT22;24054;50.128;19.730;2022-12-18T09:14:38;22.00;48.50
38263;DHT22;24054;50.128;19.730;2022-12-18T09:17:05;22.00;48.60
38263;DHT22;24054;50.128;19.730;2022-12-18T09:19:33;22.00;48.50
38263;DHT22;24054;50.128;19.730;2022-12-18T09:22:01;22.00;48.30
38263;DHT22;24054;50.128;19.730;2022-12-18T09:24:28;22.00;48.30
38263;DHT22;24054;50.128;19.730;2022-12-18T09:26:56;22.10;48.40
38263;DHT22;24054;50.128;19.730;2022-12-18T09:29:23;22.10;48.30
38263;DHT22;24054;50.128;19.730;2022-12-18T09:31:51;22.10;48.30
38263;DHT22;24054;50.128;19.730;2022-12-18T09:34:18;22.10;48.40
38263;DHT22;24054;50.128;19.730;2022-12-18T09:36:46;22.10;48.40
38263;DHT22;24054;50.128;19.730;2022-12-18T09:39:15;22.10;48.40
38263;DHT22;24054;50.128;19.730;2022-12-18T09:41:45;22.20;48.70
38263;DHT22;24054;50.128;19.730;2022-12-18T09:44:18;22.20;48.60
38263;DHT22;24054;50.128;19.730;2022-12-18T09:46:52;22.20;48.50
38263;DHT22;24054;50.128;19.730;2022-12-18T09:49:23;22.30;48.30
38263;DHT22;24054;50.128;19.730;2022-12-18T09:51:57;22.30;48.30
38263;DHT22;24054;50.128;19.730;2022-12-18T09:54:33;22.30;48.20
38263;DHT22;24054;50.128;19.730;2022-12-18T09:57:02;22.30;48.10
38263;DHT22;24054;50.128;19.730;2022-12-18T09:59:34;22.30;48.10
38263;DHT22;24054;50.128;19.730;2022-12-18T10:02:14;22.40;48.10
38263;DHT22;24054;50.128;19.730;2022-12-18T10:04:41;22.40;48.00
38263;DHT22;24054;50.128;19.730;2022-12-18T10:07:13;22.40;47.90
38263;DHT22;24054;50.128;19.730;2022-12-18T10:09:51;22.50;47.80
38263;DHT22;24054;50.128;19.730;2022-12-18T10:12:25;22.50;47.90
38263;DHT22;24054;50.128;19.730;2022-12-18T10:14:59;22.40;47.70
38263;DHT22;24054;50.128;19.730;2022-12-18T10:17:35;22.40;47.60
38263;DHT22;24054;50.128;19.730;2022-12-18T10:20:10;22.50;47.60
38263;DHT22;24054;50.128;19.730;2022-12-18T10:22:47;22.50;47.60
38263;DHT22;24054;50.128;19.730;2022-12-18T10:25:23;22.50;47.40
38263;DHT22;24054;50.128;19.730;2022-12-18T10:27:53;22.50;47.40
38263;DHT22;24054;50.128;19.730;2022-12-18T10:30:25;22.60;47.40
38263;DHT22;24054;50.128;19.730;2022-12-18T10:32:52;22.50;47.30
38263;DHT22;24054;50.128;19.730;2022-12-18T10:35:23;22.60;47.30
38263;DHT22;24054;50.128;19.730;2022-12-18T10:38:02;22.60;47.30
38263;DHT22;24054;50.128;19.730;2022-12-18T10:40:31;22.60;47.20
38263;DHT22;24054;50.128;19.730;2022-12-18T10:43:10;22.60;47.20
38263;DHT22;24054;50.128;19.730;2022-12-18T10:45:38;22.60;47.10
38263;DHT22;24054;50.128;19.730;2022-12-18T10:48:18;22.70;47.10
38263;DHT22;24054;50.128;19.730;2022-12-18T10:50:49;22.60;47.00
38263;DHT22;24054;50.128;19.730;2022-12-18T10:53:21;22.70;47.10
38263;DHT22;24054;50.128;19.730;2022-12-18T10:55:52;22.70;47.00
38263;DHT22;24054;50.128;19.730;2022-12-18T10:58:24;22.60;46.80
38263;DHT22;24054;50.128;19.730;2022-12-18T11:01:07;22.60;46.80
38263;DHT22;24054;50.128;19.730;2022-12-18T11:03:37;22.70;46.80
38263;DHT22;24054;50.128;19.730;2022-12-18T11:06:07;22.70;46.80
38263;DHT22;24054;50.128;19.730;2022-12-18T11:08:35;22.70;46.80
38263;DHT22;24054;50.128;19.730;2022-12-18T11:11:14;22.70;46.70
38263;DHT22;24054;50.128;19.730;2022-12-18T11:13:52;22.70;46.70
38263;DHT22;24054;50.128;19.730;2022-12-18T11:16:20;22.70;46.50
38263;DHT22;24054;50.128;19.730;2022-12-18T11:18:49;22.70;46.40
38263;DHT22;24054;50.128;19.730;2022-12-18T11:21:17;22.70;46.20
38263;DHT22;24054;50.128;19.730;2022-12-18T11:23:49;22.70;46.10
38263;DHT22;24054;50.128;19.730;2022-12-18T11:26:18;22.70;46.10
38263;DHT22;24054;50.128;19.730;2022-12-18T11:28:49;22.70;46.00
38263;DHT22;24054;50.128;19.730;2022-12-18T11:31:25;22.70;46.00
38263;DHT22;24054;50.128;19.730;2022-12-18T11:34:07;22.80;45.80
38263;DHT22;24054;50.128;19.730;2022-12-18T11:36:39;22.70;46.40
38263;DHT22;24054;50.128;19.730;2022-12-18T11:39:14;22.80;45.90
38263;DHT22;24054;50.128;19.730;2022-12-18T11:41:49;22.90;45.90
38263;DHT22;24054;50.128;19.730;2022-12-18T11:44:43;22.90;45.90
38263;DHT22;24054;50.128;19.730;2022-12-18T11:47:19;22.90;46.00
38263;DHT22;24054;50.128;19.730;2022-12-18T11:49:49;23.00;46.20
38263;DHT22;24054;50.128;19.730;2022-12-18T11:52:19;23.00;46.20
38263;DHT22;24054;50.128;19.730;2022-12-18T11:54:51;23.00;46.20
38263;DHT22;24054;50.128;19.730;2022-12-18T11:57:29;23.10;46.10
38263;DHT22;24054;50.128;19.730;2022-12-18T12:00:03;23.20;46.00
38263;DHT22;24054;50.128;19.730;2022-12-18T12:02:46;23.20;45.90
38263;DHT22;24054;50.128;19.730;2022-12-18T12:05:25;23.30;45.80
38263;DHT22;24054;50.128;19.730;2022-12-18T12:07:59;23.40;45.60
38263;DHT22;24054;50.128;19.730;2022-12-18T12:10:39;23.50;45.50
38263;DHT22;24054;50.128;19.730;2022-12-18T12:13:25;23.70;45.40
38263;DHT22;24054;50.128;19.730;2022-12-18T12:16:06;23.80;45.10
38263;DHT22;24054;50.128;19.730;2022-12-18T12:18:48;23.90;45.10
38263;DHT22;24054;50.128;19.730;2022-12-18T12:21:23;24.00;44.90
38263;DHT22;24054;50.128;19.730;2022-12-18T12:24:02;24.10;44.90
38263;DHT22;24054;50.128;19.730;2022-12-18T12:26:38;24.20;44.70
38263;DHT22;24054;50.128;19.730;2022-12-18T12:29:22;24.20;44.60
38263;DHT22;24054;50.128;19.730;2022-12-18T12:32:08;24.20;44.60
38263;DHT22;24054;50.128;19.730;2022-12-18T12:34:49;24.20;44.50
38263;DHT22;24054;50.128;19.730;2022-12-18T12:37:30;24.20;44.20
38263;DHT22;24054;50.128;19.730;2022-12-18T12:40:01;24.10;43.10
38263;DHT22;24054;50.128;19.730;2022-12-18T12:42:33;24.10;43.60
38263;DHT22;24054;50.128;19.730;2022-12-18T12:45:23;24.10;43.90
38263;DHT22;24054;50.128;19.730;2022-12-18T12:47:55;24.00;44.10
38263;DHT22;24054;50.128;19.730;2022-12-18T12:50:23;24.00;44.10
38263;DHT22;24054;50.128;19.730;2022-12-18T12:52:54;23.90;44.30
38263;DHT22;24054;50.128;19.730;2022-12-18T12:55:24;23.90;44.40
38263;DHT22;24054;50.128;19.730;2022-12-18T12:58:06;23.80;44.40
38263;DHT22;24054;50.128;19.730;2022-12-18T13:00:43;23.80;44.60
38263;DHT22;24054;50.128;19.730;2022-12-18T13:03:18;23.80;44.60
38263;DHT22;24054;50.128;19.730;2022-12-18T13:05:49;23.70;44.70
38263;DHT22;24054;50.128;19.730;2022-12-18T13:08:23;23.70;44.20
38263;DHT22;24054;50.128;19.730;2022-12-18T13:10:52;23.70;44.30
38263;DHT22;24054;50.128;19.730;2022-12-18T13:13:49;23.60;43.40
38263;DHT22;24054;50.128;19.730;2022-12-18T13:16:18;23.60;43.50
38263;DHT22;24054;50.128;19.730;2022-12-18T13:18:49;23.50;43.60
38263;DHT22;24054;50.128;19.730;2022-12-18T13:21:21;23.50;43.70
38263;DHT22;24054;50.128;19.730;2022-12-18T13:23:50;23.40;43.60
38263;DHT22;24054;50.128;19.730;2022-12-18T13:26:32;23.40;43.80
38263;DHT22;24054;50.128;19.730;2022-12-18T13:29:00;23.40;43.80
38263;DHT22;24054;50.128;19.730;2022-12-18T13:31:59;23.30;44.00
38263;DHT22;24054;50.128;19.730;2022-12-18T13:34:28;23.30;44.10
38263;DHT22;24054;50.128;19.730;2022-12-18T13:39:40;23.20;44.30
38263;DHT22;24054;50.128;19.730;2022-12-18T13:42:37;23.20;44.30
38263;DHT22;24054;50.128;19.730;2022-12-18T13:45:59;23.20;44.50
38263;DHT22;24054;50.128;19.730;2022-12-18T13:48:30;23.10;44.50
38263;DHT22;24054;50.128;19.730;2022-12-18T13:51:03;23.10;44.60
38263;DHT22;24054;50.128;19.730;2022-12-18T13:53:36;23.10;44.60
38263;DHT22;24054;50.128;19.730;2022-12-18T13:56:05;23.10;44.70
38263;DHT22;24054;50.128;19.730;2022-12-18T13:58:33;23.00;44.70
38263;DHT22;24054;50.128;19.730;2022-12-18T14:01:00;23.00;44.80
38263;DHT22;24054;50.128;19.730;2022-12-18T14:03:31;23.00;44.90
38263;DHT22;24054;50.128;19.730;2022-12-18T14:06:02;23.00;45.00
38263;DHT22;24054;50.128;19.730;2022-12-18T14:08:38;23.00;45.10
38263;DHT22;24054;50.128;19.730;2022-12-18T14:11:07;22.90;45.00
38263;DHT22;24054;50.128;19.730;2022-12-18T14:13:41;22.90;44.90
38263;DHT22;24054;50.128;19.730;2022-12-18T14:16:14;22.90;44.90
38263;DHT22;24054;50.128;19.730;2022-12-18T14:18:45;22.80;44.80
38263;DHT22;24054;50.128;19.730;2022-12-18T14:21:21;22.80;44.70
38263;DHT22;24054;50.128;19.730;2022-12-18T14:23:49;22.80;44.70
38263;DHT22;24054;50.128;19.730;2022-12-18T14:26:24;22.70;44.60
38263;DHT22;24054;50.128;19.730;2022-12-18T14:28:54;22.70;44.60
38263;DHT22;24054;50.128;19.730;2022-12-18T14:31:23;22.70;44.80
38263;DHT22;24054;50.128;19.730;2022-12-18T14:33:53;22.60;44.70
38263;DHT22;24054;50.128;19.730;2022-12-18T14:36:23;22.60;44.70
38263;DHT22;24054;50.128;19.730;2022-12-18T14:38:52;22.60;44.80
38263;DHT22;24054;50.128;19.730;2022-12-18T14:41:21;22.60;44.80
38263;DHT22;24054;50.128;19.730;2022-12-18T14:43:50;22.50;44.80
38263;DHT22;24054;50.128;19.730;2022-12-18T14:46:29;22.50;44.80
38263;DHT22;24054;50.128;19.730;2022-12-18T14:49:00;22.40;44.80
38263;DHT22;24054;50.128;19.730;2022-12-18T14:51:30;22.40;44.70
38263;DHT22;24054;50.128;19.730;2022-12-18T14:53:59;22.40;44.80
38263;DHT22;24054;50.128;19.730;2022-12-18T14:56:32;22.30;44.90
38263;DHT22;24054;50.128;19.730;2022-12-18T14:59:02;22.30;44.90
38263;DHT22;24054;50.128;19.730;2022-12-18T15:01:33;22.30;45.00
38263;DHT22;24054;50.128;19.730;2022-12-18T15:04:04;22.30;45.30
38263;DHT22;24054;50.128;19.730;2022-12-18T15:06:35;22.30;45.40
38263;DHT22;24054;50.128;19.730;2022-12-18T15:09:05;22.30;45.50
38263;DHT22;24054;50.128;19.730;2022-12-18T15:11:44;22.30;45.50
38263;DHT22;24054;50.128;19.730;2022-12-18T15:14:39;22.30;45.50
38263;DHT22;24054;50.128;19.730;2022-12-18T15:17:17;22.30;45.50
38263;DHT22;24054;50.128;19.730;2022-12-18T15:19:51;22.30;45.50
38263;DHT22;24054;50.128;19.730;2022-12-18T15:22:22;22.30;45.50
38263;DHT22;24054;50.128;19.730;2022-12-18T15:24:54;22.40;45.60
38263;DHT22;24054;50.128;19.730;2022-12-18T15:27:31;22.40;45.60
38263;DHT22;24054;50.128;19.730;2022-12-18T15:30:19;22.40;45.60
38263;DHT22;24054;50.128;19.730;2022-12-18T15:32:49;22.40;45.50
38263;DHT22;24054;50.128;19.730;2022-12-18T15:35:21;22.40;45.50
38263;DHT22;24054;50.128;19.730;2022-12-18T15:37:49;22.50;45.50
38263;DHT22;24054;50.128;19.730;2022-12-18T15:40:19;22.50;45.60
38263;DHT22;24054;50.128;19.730;2022-12-18T15:42:50;22.50;45.50